Guatay, CA (91931)

10:04 PM PDT on June 26, 2017 (GMT -0700)
MCTMSD | | Change Station
Active Advisory: Fire Weather Warning

Elev 4001 ft 32.78 °N, 116.55 °W | Updated 40 days ago

Clear
Clear
40.0 °F
Feels Like 40 °F
N
2.0
Wind Variable Wind from WSW
Gusts 4.0 mph

Today
High -- | Low -- °F
--% Chance of Precip.
Yesterday
High -- | Low -- °F
Precip. -- in
Pressure 29.88 in
Visibility -9999.0 miles
Clouds
Windchill 40 °F
Dew Point 39 °F
Humidity 98%
Rainfall 0.00 in
Snow Depth Not available.
5:39 AM 7:58 PM
Waxing Crescent, 13% visible
METAR KCZZ 270452Z AUTO 09004KT 21/01 A2999 RMK AO1 SLP116 T02110006
Pressure 29.88 in
Visibility -9999.0 miles
Clouds
Windchill 40 °F
Dew Point 39 °F
Humidity 98%
Rainfall 0.00 in
Snow Depth Not available.
5:39 AM 7:58 PM
Waxing Crescent, 13% visible
METAR KCZZ 270452Z AUTO 09004KT 21/01 A2999 RMK AO1 SLP116 T02110006

Get Your Daily Forecast Email!

Thanks for signing up!

Be on the lookout for a verification email in your inbox.

You'll start receiving severe weather alerts in your inbox..

×

10-Day Weather Forecast

Almanac

Astronomy

Jun. 26, 2017 Rise Set
Actual Time
Civil Twilight
Nautical Twilight
Astronomical Twilight
Moon
Length of Visible Light
Length of Day
Tomorrow will be .
, % of the Moon is Illuminated

Today's Extremes

State Highs State Lows

Community

WunderPhotos

Category 6

Welcome to Category 6. This is the collective home for Weather Underground's featured writeups by Dr. Jeff Masters (right), Bob Henson (left), Chris Burt, and other regular contributors.

Nearby

Air Quality

  Air Quality AQ Index Pollutant
Not available.

Snow Depth

Station Depth Elevation

Earthquake Activity

City Distance Mag. Time & Date
Minimum magnitude displayed is 2.5.

Coastal Water Temperatures

Place Temperature

Stations

Nearby Weather Stations

Station Location Temp. Windchill Dew Point Humidity Wind Precip. Elev Updated Type
                   

Watches & Warnings

Fire Weather Warning
Issued: 8:48 PM PDT Jun. 26, 2017 – National Weather Service

... Red flag warning remains in effect until 1 am PDT Wednesday
for strong gusty winds and low humidity for the desert slopes of
the mountains below 5000 feet and the deserts...

* wind... west to southwest 15 to 25 mph with gusts to 35 mph.
Isolated gusts 45 to 55 mph east of mountain passes.

* Humidity... single digits.

* Timing... through Tuesday night.

* Outlook... winds will decrease slightly Tuesday night through
Wednesday, although humidity will remain low.

* Impacts... any fires that develop will likely spread rapidly.
Outdoor burning is not recommended.

Precautionary/preparedness actions...

A red flag warning means that critical fire weather conditions
are either occurring now... .or will shortly. A combination of
strong winds... low relative humidity... and warm temperatures can
contribute to extreme fire behavior.



Mm/jad